sensor_id;sensor_type;location;lat;lon;timestamp;P1;durP1;ratioP1;P2;durP2;ratioP2
52208;SDS011;38507;53.132;6.394;2022-10-31T00:00:29;25.88;;;12.43;;
52208;SDS011;38507;53.132;6.394;2022-10-31T00:02:55;22.30;;;13.20;;
52208;SDS011;38507;53.132;6.394;2022-10-31T00:05:20;24.42;;;13.43;;
52208;SDS011;38507;53.132;6.394;2022-10-31T00:07:46;19.17;;;11.93;;
52208;SDS011;38507;53.132;6.394;2022-10-31T00:10:12;22.17;;;12.50;;
52208;SDS011;38507;53.132;6.394;2022-10-31T00:12:37;23.85;;;11.77;;
52208;SDS011;38507;53.132;6.394;2022-10-31T00:15:03;16.65;;;11.55;;
52208;SDS011;38507;53.132;6.394;2022-10-31T00:17:29;21.58;;;12.00;;
52208;SDS011;38507;53.132;6.394;2022-10-31T00:19:54;26.65;;;13.55;;
52208;SDS011;38507;53.132;6.394;2022-10-31T00:22:20;24.27;;;13.57;;
52208;SDS011;38507;53.132;6.394;2022-10-31T00:24:45;19.58;;;12.13;;
52208;SDS011;38507;53.132;6.394;2022-10-31T00:27:11;21.85;;;13.60;;
52208;SDS011;38507;53.132;6.394;2022-10-31T00:29:37;20.70;;;13.07;;
52208;SDS011;38507;53.132;6.394;2022-10-31T00:32:03;28.38;;;14.68;;
52208;SDS011;38507;53.132;6.394;2022-10-31T00:34:28;26.17;;;14.70;;
52208;SDS011;38507;53.132;6.394;2022-10-31T00:36:54;28.70;;;15.05;;
52208;SDS011;38507;53.132;6.394;2022-10-31T00:39:20;30.40;;;15.38;;
52208;SDS011;38507;53.132;6.394;2022-10-31T00:41:46;26.95;;;14.45;;
52208;SDS011;38507;53.132;6.394;2022-10-31T00:44:11;23.52;;;14.05;;
52208;SDS011;38507;53.132;6.394;2022-10-31T00:46:37;25.50;;;13.98;;
52208;SDS011;38507;53.132;6.394;2022-10-31T00:49:03;24.60;;;13.93;;
52208;SDS011;38507;53.132;6.394;2022-10-31T00:51:28;26.13;;;14.25;;
52208;SDS011;38507;53.132;6.394;2022-10-31T00:53:54;28.23;;;13.45;;
52208;SDS011;38507;53.132;6.394;2022-10-31T00:56:19;27.58;;;14.75;;
52208;SDS011;38507;53.132;6.394;2022-10-31T00:58:45;21.73;;;13.68;;
52208;SDS011;38507;53.132;6.394;2022-10-31T01:01:10;26.88;;;14.82;;
52208;SDS011;38507;53.132;6.394;2022-10-31T01:03:36;23.17;;;13.98;;
52208;SDS011;38507;53.132;6.394;2022-10-31T01:08:29;27.15;;;13.93;;
52208;SDS011;38507;53.132;6.394;2022-10-31T01:11:11;26.50;;;14.35;;
52208;SDS011;38507;53.132;6.394;2022-10-31T01:13:43;24.33;;;14.05;;
52208;SDS011;38507;53.132;6.394;2022-10-31T01:16:13;29.45;;;14.45;;
52208;SDS011;38507;53.132;6.394;2022-10-31T01:18:41;24.92;;;13.95;;
52208;SDS011;38507;53.132;6.394;2022-10-31T01:21:08;29.92;;;13.80;;
52208;SDS011;38507;53.132;6.394;2022-10-31T01:23:35;31.42;;;13.93;;
52208;SDS011;38507;53.132;6.394;2022-10-31T01:26:03;21.38;;;12.80;;
52208;SDS011;38507;53.132;6.394;2022-10-31T01:28:31;24.67;;;14.23;;
52208;SDS011;38507;53.132;6.394;2022-10-31T01:31:00;23.38;;;13.70;;
52208;SDS011;38507;53.132;6.394;2022-10-31T01:33:27;20.95;;;12.85;;
52208;SDS011;38507;53.132;6.394;2022-10-31T01:35:53;27.85;;;13.32;;
52208;SDS011;38507;53.132;6.394;2022-10-31T01:38:18;24.08;;;13.20;;
52208;SDS011;38507;53.132;6.394;2022-10-31T01:40:44;22.00;;;12.63;;
52208;SDS011;38507;53.132;6.394;2022-10-31T01:43:13;24.30;;;13.18;;
52208;SDS011;38507;53.132;6.394;2022-10-31T01:45:39;26.35;;;13.07;;
52208;SDS011;38507;53.132;6.394;2022-10-31T01:48:13;24.23;;;13.13;;
52208;SDS011;38507;53.132;6.394;2022-10-31T01:50:42;24.50;;;12.85;;
52208;SDS011;38507;53.132;6.394;2022-10-31T01:53:11;25.40;;;13.02;;
52208;SDS011;38507;53.132;6.394;2022-10-31T01:55:38;26.83;;;13.60;;
52208;SDS011;38507;53.132;6.394;2022-10-31T01:58:07;21.88;;;12.93;;
52208;SDS011;38507;53.132;6.394;2022-10-31T02:00:39;26.77;;;13.45;;
52208;SDS011;38507;53.132;6.394;2022-10-31T02:03:09;24.23;;;13.02;;
52208;SDS011;38507;53.132;6.394;2022-10-31T02:05:35;24.92;;;13.05;;
52208;SDS011;38507;53.132;6.394;2022-10-31T02:08:08;28.00;;;13.27;;
52208;SDS011;38507;53.132;6.394;2022-10-31T02:10:53;21.73;;;13.07;;
52208;SDS011;38507;53.132;6.394;2022-10-31T02:13:20;25.00;;;14.13;;
52208;SDS011;38507;53.132;6.394;2022-10-31T02:15:52;24.38;;;12.27;;
52208;SDS011;38507;53.132;6.394;2022-10-31T02:18:20;24.42;;;14.20;;
52208;SDS011;38507;53.132;6.394;2022-10-31T02:26:08;26.60;;;15.15;;
52208;SDS011;38507;53.132;6.394;2022-10-31T02:31:32;22.65;;;13.93;;
52208;SDS011;38507;53.132;6.394;2022-10-31T02:36:43;26.85;;;14.95;;
52208;SDS011;38507;53.132;6.394;2022-10-31T02:39:28;20.35;;;12.65;;
52208;SDS011;38507;53.132;6.394;2022-10-31T02:44:39;27.73;;;14.88;;
52208;SDS011;38507;53.132;6.394;2022-10-31T02:47:08;24.05;;;14.75;;
52208;SDS011;38507;53.132;6.394;2022-10-31T02:49:40;24.85;;;13.50;;
52208;SDS011;38507;53.132;6.394;2022-10-31T02:52:22;24.67;;;13.80;;
52208;SDS011;38507;53.132;6.394;2022-10-31T02:54:50;23.48;;;13.82;;
52208;SDS011;38507;53.132;6.394;2022-10-31T02:57:17;25.75;;;15.13;;
52208;SDS011;38507;53.132;6.394;2022-10-31T02:59:49;23.45;;;13.25;;
52208;SDS011;38507;53.132;6.394;2022-10-31T03:10:27;25.35;;;14.35;;
52208;SDS011;38507;53.132;6.394;2022-10-31T03:15:34;27.88;;;14.13;;
52208;SDS011;38507;53.132;6.394;2022-10-31T03:20:52;25.88;;;14.05;;
52208;SDS011;38507;53.132;6.394;2022-10-31T03:23:22;26.85;;;14.10;;
52208;SDS011;38507;53.132;6.394;2022-10-31T03:25:50;24.20;;;14.20;;
52208;SDS011;38507;53.132;6.394;2022-10-31T03:28:20;26.48;;;15.10;;
52208;SDS011;38507;53.132;6.394;2022-10-31T03:30:51;21.63;;;13.88;;
52208;SDS011;38507;53.132;6.394;2022-10-31T03:33:20;25.38;;;13.82;;
52208;SDS011;38507;53.132;6.394;2022-10-31T03:35:51;23.08;;;14.13;;
52208;SDS011;38507;53.132;6.394;2022-10-31T03:38:20;22.05;;;13.90;;
52208;SDS011;38507;53.132;6.394;2022-10-31T03:40:47;28.77;;;15.15;;
52208;SDS011;38507;53.132;6.394;2022-10-31T03:43:19;28.35;;;14.30;;
52208;SDS011;38507;53.132;6.394;2022-10-31T03:45:51;22.88;;;13.90;;
52208;SDS011;38507;53.132;6.394;2022-10-31T03:48:18;22.45;;;13.43;;
52208;SDS011;38507;53.132;6.394;2022-10-31T03:53:19;25.80;;;15.98;;
52208;SDS011;38507;53.132;6.394;2022-10-31T03:56:10;22.40;;;14.30;;
52208;SDS011;38507;53.132;6.394;2022-10-31T03:58:45;25.58;;;14.90;;
52208;SDS011;38507;53.132;6.394;2022-10-31T04:01:17;24.40;;;15.25;;
52208;SDS011;38507;53.132;6.394;2022-10-31T04:03:45;24.40;;;14.13;;
52208;SDS011;38507;53.132;6.394;2022-10-31T04:06:12;26.40;;;14.55;;
52208;SDS011;38507;53.132;6.394;2022-10-31T04:08:50;25.40;;;14.55;;
52208;SDS011;38507;53.132;6.394;2022-10-31T04:11:21;23.52;;;15.25;;
52208;SDS011;38507;53.132;6.394;2022-10-31T04:13:50;28.83;;;15.05;;
52208;SDS011;38507;53.132;6.394;2022-10-31T04:16:17;23.27;;;14.85;;
52208;SDS011;38507;53.132;6.394;2022-10-31T04:18:44;24.92;;;15.60;;
52208;SDS011;38507;53.132;6.394;2022-10-31T04:21:13;26.30;;;15.32;;
52208;SDS011;38507;53.132;6.394;2022-10-31T04:23:38;25.27;;;14.90;;
52208;SDS011;38507;53.132;6.394;2022-10-31T04:26:04;24.75;;;14.70;;
52208;SDS011;38507;53.132;6.394;2022-10-31T04:28:30;26.85;;;15.10;;
52208;SDS011;38507;53.132;6.394;2022-10-31T04:30:57;28.17;;;15.23;;
52208;SDS011;38507;53.132;6.394;2022-10-31T04:33:23;24.15;;;14.73;;
52208;SDS011;38507;53.132;6.394;2022-10-31T04:35:49;27.73;;;15.25;;
52208;SDS011;38507;53.132;6.394;2022-10-31T04:38:14;21.63;;;14.50;;
52208;SDS011;38507;53.132;6.394;2022-10-31T04:40:40;26.30;;;15.38;;
52208;SDS011;38507;53.132;6.394;2022-10-31T04:43:06;25.40;;;15.90;;
52208;SDS011;38507;53.132;6.394;2022-10-31T04:45:31;22.10;;;14.07;;
52208;SDS011;38507;53.132;6.394;2022-10-31T04:48:02;20.63;;;13.48;;
52208;SDS011;38507;53.132;6.394;2022-10-31T04:50:28;20.80;;;12.35;;
52208;SDS011;38507;53.132;6.394;2022-10-31T04:52:54;20.30;;;12.10;;
52208;SDS011;38507;53.132;6.394;2022-10-31T04:55:19;20.88;;;13.15;;
52208;SDS011;38507;53.132;6.394;2022-10-31T04:57:48;18.10;;;12.43;;
52208;SDS011;38507;53.132;6.394;2022-10-31T05:00:16;16.27;;;10.02;;
52208;SDS011;38507;53.132;6.394;2022-10-31T05:02:47;18.95;;;10.85;;
52208;SDS011;38507;53.132;6.394;2022-10-31T05:05:17;25.10;;;12.75;;
52208;SDS011;38507;53.132;6.394;2022-10-31T05:07:45;21.40;;;14.57;;
52208;SDS011;38507;53.132;6.394;2022-10-31T05:10:17;22.60;;;13.63;;
52208;SDS011;38507;53.132;6.394;2022-10-31T05:12:47;22.63;;;14.32;;
52208;SDS011;38507;53.132;6.394;2022-10-31T05:15:14;23.20;;;14.07;;
52208;SDS011;38507;53.132;6.394;2022-10-31T05:17:41;22.40;;;14.38;;
52208;SDS011;38507;53.132;6.394;2022-10-31T05:20:06;23.25;;;13.75;;
52208;SDS011;38507;53.132;6.394;2022-10-31T05:22:32;21.92;;;12.82;;
52208;SDS011;38507;53.132;6.394;2022-10-31T05:24:58;24.90;;;14.75;;
52208;SDS011;38507;53.132;6.394;2022-10-31T05:27:23;23.67;;;15.07;;
52208;SDS011;38507;53.132;6.394;2022-10-31T05:29:49;20.05;;;13.65;;
52208;SDS011;38507;53.132;6.394;2022-10-31T05:32:15;21.17;;;13.95;;
52208;SDS011;38507;53.132;6.394;2022-10-31T05:34:40;20.52;;;14.38;;
52208;SDS011;38507;53.132;6.394;2022-10-31T05:37:06;25.88;;;14.98;;
52208;SDS011;38507;53.132;6.394;2022-10-31T05:39:32;19.58;;;13.93;;
52208;SDS011;38507;53.132;6.394;2022-10-31T05:41:57;21.20;;;14.77;;
52208;SDS011;38507;53.132;6.394;2022-10-31T05:44:23;23.13;;;14.70;;
52208;SDS011;38507;53.132;6.394;2022-10-31T05:46:48;19.90;;;13.65;;
52208;SDS011;38507;53.132;6.394;2022-10-31T05:49:14;22.00;;;14.10;;
52208;SDS011;38507;53.132;6.394;2022-10-31T05:51:40;21.70;;;14.13;;
52208;SDS011;38507;53.132;6.394;2022-10-31T05:54:05;19.90;;;13.30;;
52208;SDS011;38507;53.132;6.394;2022-10-31T05:56:31;21.30;;;14.75;;
52208;SDS011;38507;53.132;6.394;2022-10-31T05:58:56;18.23;;;13.25;;
52208;SDS011;38507;53.132;6.394;2022-10-31T06:01:22;20.05;;;13.82;;
52208;SDS011;38507;53.132;6.394;2022-10-31T06:03:48;19.58;;;12.88;;
52208;SDS011;38507;53.132;6.394;2022-10-31T06:06:13;19.60;;;14.38;;
52208;SDS011;38507;53.132;6.394;2022-10-31T06:08:39;20.65;;;13.60;;
52208;SDS011;38507;53.132;6.394;2022-10-31T06:11:05;20.33;;;14.07;;
52208;SDS011;38507;53.132;6.394;2022-10-31T06:13:31;21.88;;;14.50;;
52208;SDS011;38507;53.132;6.394;2022-10-31T06:15:57;21.60;;;13.50;;
52208;SDS011;38507;53.132;6.394;2022-10-31T06:18:22;17.80;;;13.00;;
52208;SDS011;38507;53.132;6.394;2022-10-31T06:20:48;22.17;;;14.45;;
52208;SDS011;38507;53.132;6.394;2022-10-31T06:23:13;21.95;;;14.65;;
52208;SDS011;38507;53.132;6.394;2022-10-31T06:25:39;25.38;;;14.05;;
52208;SDS011;38507;53.132;6.394;2022-10-31T06:28:05;25.52;;;15.07;;
52208;SDS011;38507;53.132;6.394;2022-10-31T06:30:30;20.58;;;14.00;;
52208;SDS011;38507;53.132;6.394;2022-10-31T06:33:03;23.42;;;13.65;;
52208;SDS011;38507;53.132;6.394;2022-10-31T06:35:29;21.25;;;13.27;;
52208;SDS011;38507;53.132;6.394;2022-10-31T06:37:55;21.50;;;13.65;;
52208;SDS011;38507;53.132;6.394;2022-10-31T06:40:21;22.23;;;14.23;;
52208;SDS011;38507;53.132;6.394;2022-10-31T06:42:47;22.38;;;14.10;;
52208;SDS011;38507;53.132;6.394;2022-10-31T06:45:20;21.08;;;14.50;;
52208;SDS011;38507;53.132;6.394;2022-10-31T06:47:50;23.13;;;13.80;;
52208;SDS011;38507;53.132;6.394;2022-10-31T06:50:17;21.05;;;14.02;;
52208;SDS011;38507;53.132;6.394;2022-10-31T06:52:42;22.83;;;14.38;;
52208;SDS011;38507;53.132;6.394;2022-10-31T06:55:08;23.98;;;14.18;;
52208;SDS011;38507;53.132;6.394;2022-10-31T06:57:34;21.77;;;13.70;;
52208;SDS011;38507;53.132;6.394;2022-10-31T06:59:59;17.52;;;12.90;;
52208;SDS011;38507;53.132;6.394;2022-10-31T07:02:25;18.20;;;12.80;;
52208;SDS011;38507;53.132;6.394;2022-10-31T07:04:50;24.17;;;14.25;;
52208;SDS011;38507;53.132;6.394;2022-10-31T07:07:16;18.55;;;13.82;;
52208;SDS011;38507;53.132;6.394;2022-10-31T07:09:42;21.48;;;13.50;;
52208;SDS011;38507;53.132;6.394;2022-10-31T07:12:07;24.35;;;15.35;;
52208;SDS011;38507;53.132;6.394;2022-10-31T07:14:33;24.05;;;15.52;;
52208;SDS011;38507;53.132;6.394;2022-10-31T07:16:58;21.50;;;15.13;;
52208;SDS011;38507;53.132;6.394;2022-10-31T07:19:24;23.95;;;13.95;;
52208;SDS011;38507;53.132;6.394;2022-10-31T07:21:50;24.35;;;14.30;;
52208;SDS011;38507;53.132;6.394;2022-10-31T07:24:15;23.33;;;15.43;;
52208;SDS011;38507;53.132;6.394;2022-10-31T07:26:41;21.75;;;15.30;;
52208;SDS011;38507;53.132;6.394;2022-10-31T07:29:07;29.23;;;16.58;;
52208;SDS011;38507;53.132;6.394;2022-10-31T07:31:33;21.65;;;15.27;;
52208;SDS011;38507;53.132;6.394;2022-10-31T07:33:58;25.35;;;15.25;;
52208;SDS011;38507;53.132;6.394;2022-10-31T07:36:24;18.83;;;14.50;;
52208;SDS011;38507;53.132;6.394;2022-10-31T07:38:49;25.30;;;16.50;;
52208;SDS011;38507;53.132;6.394;2022-10-31T07:41:16;23.45;;;15.95;;
52208;SDS011;38507;53.132;6.394;2022-10-31T07:43:41;28.88;;;17.63;;
52208;SDS011;38507;53.132;6.394;2022-10-31T07:46:07;25.80;;;15.60;;
52208;SDS011;38507;53.132;6.394;2022-10-31T07:48:33;27.55;;;17.13;;
52208;SDS011;38507;53.132;6.394;2022-10-31T07:50:58;26.20;;;16.08;;
52208;SDS011;38507;53.132;6.394;2022-10-31T07:53:24;26.73;;;16.42;;
52208;SDS011;38507;53.132;6.394;2022-10-31T07:55:50;24.85;;;17.23;;
52208;SDS011;38507;53.132;6.394;2022-10-31T07:58:16;37.15;;;18.23;;
52208;SDS011;38507;53.132;6.394;2022-10-31T08:00:43;29.98;;;17.50;;
52208;SDS011;38507;53.132;6.394;2022-10-31T08:03:12;27.38;;;16.42;;
52208;SDS011;38507;53.132;6.394;2022-10-31T08:05:39;25.73;;;16.50;;
52208;SDS011;38507;53.132;6.394;2022-10-31T08:08:06;29.25;;;17.63;;
52208;SDS011;38507;53.132;6.394;2022-10-31T08:10:33;26.10;;;18.38;;
52208;SDS011;38507;53.132;6.394;2022-10-31T08:13:02;30.05;;;19.98;;
52208;SDS011;38507;53.132;6.394;2022-10-31T08:15:29;31.00;;;18.52;;
52208;SDS011;38507;53.132;6.394;2022-10-31T08:17:55;34.35;;;18.67;;
52208;SDS011;38507;53.132;6.394;2022-10-31T08:20:21;25.08;;;17.40;;
52208;SDS011;38507;53.132;6.394;2022-10-31T08:22:56;26.92;;;18.00;;
52208;SDS011;38507;53.132;6.394;2022-10-31T08:25:27;26.38;;;16.67;;
52208;SDS011;38507;53.132;6.394;2022-10-31T08:27:54;30.65;;;18.50;;
52208;SDS011;38507;53.132;6.394;2022-10-31T08:30:22;25.20;;;17.55;;
52208;SDS011;38507;53.132;6.394;2022-10-31T08:33:03;29.90;;;17.48;;
52208;SDS011;38507;53.132;6.394;2022-10-31T08:35:39;30.08;;;19.98;;
52208;SDS011;38507;53.132;6.394;2022-10-31T08:38:06;25.85;;;15.90;;
52208;SDS011;38507;53.132;6.394;2022-10-31T08:40:33;26.25;;;17.65;;
52208;SDS011;38507;53.132;6.394;2022-10-31T08:43:02;26.88;;;17.60;;
52208;SDS011;38507;53.132;6.394;2022-10-31T08:45:30;27.55;;;18.10;;
52208;SDS011;38507;53.132;6.394;2022-10-31T08:48:03;24.63;;;16.48;;
52208;SDS011;38507;53.132;6.394;2022-10-31T08:50:30;25.27;;;17.27;;
52208;SDS011;38507;53.132;6.394;2022-10-31T08:53:01;25.45;;;17.25;;
52208;SDS011;38507;53.132;6.394;2022-10-31T08:55:35;23.60;;;16.60;;
52208;SDS011;38507;53.132;6.394;2022-10-31T08:58:02;26.10;;;17.30;;
52208;SDS011;38507;53.132;6.394;2022-10-31T09:00:29;26.05;;;16.27;;
52208;SDS011;38507;53.132;6.394;2022-10-31T09:02:55;27.55;;;17.70;;
52208;SDS011;38507;53.132;6.394;2022-10-31T09:05:25;23.80;;;16.38;;
52208;SDS011;38507;53.132;6.394;2022-10-31T09:07:51;24.27;;;16.65;;
52208;SDS011;38507;53.132;6.394;2022-10-31T09:10:20;21.70;;;15.75;;
52208;SDS011;38507;53.132;6.394;2022-10-31T09:12:46;19.88;;;15.30;;
52208;SDS011;38507;53.132;6.394;2022-10-31T09:15:11;28.88;;;14.93;;
52208;SDS011;38507;53.132;6.394;2022-10-31T09:17:37;22.52;;;15.65;;
52208;SDS011;38507;53.132;6.394;2022-10-31T09:20:03;22.38;;;15.43;;
52208;SDS011;38507;53.132;6.394;2022-10-31T09:22:29;21.63;;;15.25;;
52208;SDS011;38507;53.132;6.394;2022-10-31T09:24:55;22.45;;;14.85;;
52208;SDS011;38507;53.132;6.394;2022-10-31T09:27:20;20.60;;;14.13;;
52208;SDS011;38507;53.132;6.394;2022-10-31T09:29:46;20.48;;;14.23;;
52208;SDS011;38507;53.132;6.394;2022-10-31T09:32:12;18.95;;;13.60;;
52208;SDS011;38507;53.132;6.394;2022-10-31T09:34:37;18.10;;;13.27;;
52208;SDS011;38507;53.132;6.394;2022-10-31T09:37:03;19.88;;;13.25;;
52208;SDS011;38507;53.132;6.394;2022-10-31T09:39:28;19.70;;;13.00;;
52208;SDS011;38507;53.132;6.394;2022-10-31T09:41:58;16.73;;;12.60;;
52208;SDS011;38507;53.132;6.394;2022-10-31T09:50:10;18.48;;;13.02;;
52208;SDS011;38507;53.132;6.394;2022-10-31T09:52:50;18.70;;;11.77;;
52208;SDS011;38507;53.132;6.394;2022-10-31T09:55:39;20.83;;;11.25;;
52208;SDS011;38507;53.132;6.394;2022-10-31T09:58:09;21.85;;;12.30;;
52208;SDS011;38507;53.132;6.394;2022-10-31T10:00:45;16.85;;;12.18;;
52208;SDS011;38507;53.132;6.394;2022-10-31T10:06:26;15.25;;;11.25;;
52208;SDS011;38507;53.132;6.394;2022-10-31T10:08:54;15.40;;;11.13;;
52208;SDS011;38507;53.132;6.394;2022-10-31T10:11:25;19.73;;;11.77;;
52208;SDS011;38507;53.132;6.394;2022-10-31T10:25:22;16.20;;;10.25;;
52208;SDS011;38507;53.132;6.394;2022-10-31T10:28:03;12.95;;;9.35;;
52208;SDS011;38507;53.132;6.394;2022-10-31T10:30:42;15.23;;;9.10;;
52208;SDS011;38507;53.132;6.394;2022-10-31T10:33:28;17.67;;;10.18;;
52208;SDS011;38507;53.132;6.394;2022-10-31T10:35:59;16.83;;;10.57;;
52208;SDS011;38507;53.132;6.394;2022-10-31T10:40:58;15.90;;;11.18;;
52208;SDS011;38507;53.132;6.394;2022-10-31T10:43:36;17.15;;;10.43;;
52208;SDS011;38507;53.132;6.394;2022-10-31T10:46:13;14.13;;;9.85;;
52208;SDS011;38507;53.132;6.394;2022-10-31T10:51:59;19.33;;;10.23;;
52208;SDS011;38507;53.132;6.394;2022-10-31T10:57:31;18.60;;;10.10;;
52208;SDS011;38507;53.132;6.394;2022-10-31T11:00:30;15.23;;;9.73;;
52208;SDS011;38507;53.132;6.394;2022-10-31T11:02:56;19.02;;;10.43;;
52208;SDS011;38507;53.132;6.394;2022-10-31T11:05:24;14.88;;;9.77;;
52208;SDS011;38507;53.132;6.394;2022-10-31T11:07:55;17.15;;;10.32;;
52208;SDS011;38507;53.132;6.394;2022-10-31T11:10:21;15.30;;;9.32;;
52208;SDS011;38507;53.132;6.394;2022-10-31T11:15:34;15.00;;;8.77;;
52208;SDS011;38507;53.132;6.394;2022-10-31T11:18:20;18.25;;;9.80;;
52208;SDS011;38507;53.132;6.394;2022-10-31T11:20:51;17.23;;;9.00;;
52208;SDS011;38507;53.132;6.394;2022-10-31T11:23:18;17.23;;;9.23;;
52208;SDS011;38507;53.132;6.394;2022-10-31T11:25:56;20.13;;;9.40;;
52208;SDS011;38507;53.132;6.394;2022-10-31T11:28:24;18.38;;;9.23;;
52208;SDS011;38507;53.132;6.394;2022-10-31T11:33:22;11.48;;;8.35;;
52208;SDS011;38507;53.132;6.394;2022-10-31T11:35:57;17.88;;;9.10;;
52208;SDS011;38507;53.132;6.394;2022-10-31T11:38:27;15.10;;;8.48;;
52208;SDS011;38507;53.132;6.394;2022-10-31T11:41:17;16.42;;;8.57;;
52208;SDS011;38507;53.132;6.394;2022-10-31T11:43:50;15.40;;;8.05;;
52208;SDS011;38507;53.132;6.394;2022-10-31T11:46:38;15.85;;;7.57;;
52208;SDS011;38507;53.132;6.394;2022-10-31T11:49:13;16.65;;;8.32;;
52208;SDS011;38507;53.132;6.394;2022-10-31T11:52:06;12.95;;;7.05;;
52208;SDS011;38507;53.132;6.394;2022-10-31T11:54:47;13.35;;;7.70;;
52208;SDS011;38507;53.132;6.394;2022-10-31T11:57:26;11.50;;;7.25;;
52208;SDS011;38507;53.132;6.394;2022-10-31T11:59:56;12.20;;;6.72;;
52208;SDS011;38507;53.132;6.394;2022-10-31T12:02:23;11.65;;;5.57;;
52208;SDS011;38507;53.132;6.394;2022-10-31T12:05:06;9.10;;;5.68;;
52208;SDS011;38507;53.132;6.394;2022-10-31T12:07:42;8.52;;;5.32;;
52208;SDS011;38507;53.132;6.394;2022-10-31T12:10:11;11.13;;;5.85;;
52208;SDS011;38507;53.132;6.394;2022-10-31T12:12:44;10.68;;;5.15;;
52208;SDS011;38507;53.132;6.394;2022-10-31T12:20:52;8.77;;;5.43;;
52208;SDS011;38507;53.132;6.394;2022-10-31T12:26:32;8.77;;;4.37;;
52208;SDS011;38507;53.132;6.394;2022-10-31T12:42:51;11.00;;;4.80;;
52208;SDS011;38507;53.132;6.394;2022-10-31T12:53:53;10.07;;;4.95;;
52208;SDS011;38507;53.132;6.394;2022-10-31T12:59:01;12.40;;;5.40;;
52208;SDS011;38507;53.132;6.394;2022-10-31T13:01:38;16.02;;;8.70;;
52208;SDS011;38507;53.132;6.394;2022-10-31T13:04:39;9.40;;;4.50;;
52208;SDS011;38507;53.132;6.394;2022-10-31T13:07:08;11.73;;;4.72;;
52208;SDS011;38507;53.132;6.394;2022-10-31T13:09:45;10.48;;;4.30;;
52208;SDS011;38507;53.132;6.394;2022-10-31T13:12:21;10.63;;;3.63;;
52208;SDS011;38507;53.132;6.394;2022-10-31T13:14:50;11.70;;;3.45;;
52208;SDS011;38507;53.132;6.394;2022-10-31T13:17:27;14.00;;;3.42;;
52208;SDS011;38507;53.132;6.394;2022-10-31T13:20:04;8.25;;;3.30;;
52208;SDS011;38507;53.132;6.394;2022-10-31T13:22:34;10.23;;;2.70;;
52208;SDS011;38507;53.132;6.394;2022-10-31T13:35:57;11.95;;;2.42;;
52208;SDS011;38507;53.132;6.394;2022-10-31T13:38:57;10.23;;;2.70;;
52208;SDS011;38507;53.132;6.394;2022-10-31T13:46:40;5.93;;;1.98;;
52208;SDS011;38507;53.132;6.394;2022-10-31T13:49:39;9.70;;;2.17;;
52208;SDS011;38507;53.132;6.394;2022-10-31T13:52:11;8.05;;;2.15;;
52208;SDS011;38507;53.132;6.394;2022-10-31T13:54:42;12.00;;;2.05;;
52208;SDS011;38507;53.132;6.394;2022-10-31T13:57:19;9.38;;;2.00;;
52208;SDS011;38507;53.132;6.394;2022-10-31T13:59:56;7.85;;;1.85;;
52208;SDS011;38507;53.132;6.394;2022-10-31T14:02:28;8.82;;;1.70;;
52208;SDS011;38507;53.132;6.394;2022-10-31T14:05:00;9.80;;;2.08;;
52208;SDS011;38507;53.132;6.394;2022-10-31T14:07:45;7.88;;;1.83;;
52208;SDS011;38507;53.132;6.394;2022-10-31T14:10:25;7.88;;;2.05;;
52208;SDS011;38507;53.132;6.394;2022-10-31T14:13:05;8.07;;;2.03;;
52208;SDS011;38507;53.132;6.394;2022-10-31T14:15:53;10.95;;;2.58;;
52208;SDS011;38507;53.132;6.394;2022-10-31T14:18:35;6.68;;;2.83;;
52208;SDS011;38507;53.132;6.394;2022-10-31T14:21:13;9.43;;;3.00;;
52208;SDS011;38507;53.132;6.394;2022-10-31T14:23:48;6.50;;;2.25;;
52208;SDS011;38507;53.132;6.394;2022-10-31T14:26:30;13.75;;;2.78;;
52208;SDS011;38507;53.132;6.394;2022-10-31T14:45:40;12.48;;;3.55;;
52208;SDS011;38507;53.132;6.394;2022-10-31T14:51:13;12.52;;;3.67;;
52208;SDS011;38507;53.132;6.394;2022-10-31T14:53:45;16.55;;;4.03;;
52208;SDS011;38507;53.132;6.394;2022-10-31T14:56:25;12.88;;;3.40;;
52208;SDS011;38507;53.132;6.394;2022-10-31T14:58:54;8.50;;;3.38;;
52208;SDS011;38507;53.132;6.394;2022-10-31T15:04:13;13.57;;;4.40;;
52208;SDS011;38507;53.132;6.394;2022-10-31T15:06:43;15.05;;;5.40;;
52208;SDS011;38507;53.132;6.394;2022-10-31T15:14:53;15.63;;;6.07;;
52208;SDS011;38507;53.132;6.394;2022-10-31T15:17:20;15.43;;;5.75;;
52208;SDS011;38507;53.132;6.394;2022-10-31T15:19:46;14.57;;;6.38;;
52208;SDS011;38507;53.132;6.394;2022-10-31T15:22:14;14.60;;;7.05;;
52208;SDS011;38507;53.132;6.394;2022-10-31T15:24:44;17.48;;;6.63;;
52208;SDS011;38507;53.132;6.394;2022-10-31T15:27:14;16.88;;;6.88;;
52208;SDS011;38507;53.132;6.394;2022-10-31T15:29:48;13.43;;;7.30;;
52208;SDS011;38507;53.132;6.394;2022-10-31T15:32:19;14.47;;;6.63;;
52208;SDS011;38507;53.132;6.394;2022-10-31T15:34:48;17.42;;;7.13;;
52208;SDS011;38507;53.132;6.394;2022-10-31T15:37:15;14.35;;;6.75;;
52208;SDS011;38507;53.132;6.394;2022-10-31T15:39:43;19.63;;;6.90;;
52208;SDS011;38507;53.132;6.394;2022-10-31T15:45:16;10.52;;;6.10;;
52208;SDS011;38507;53.132;6.394;2022-10-31T15:47:45;14.10;;;5.90;;
52208;SDS011;38507;53.132;6.394;2022-10-31T15:50:18;13.25;;;6.05;;
52208;SDS011;38507;53.132;6.394;2022-10-31T15:52:52;14.68;;;6.43;;
52208;SDS011;38507;53.132;6.394;2022-10-31T15:55:19;15.50;;;6.72;;
52208;SDS011;38507;53.132;6.394;2022-10-31T15:57:50;19.35;;;6.55;;
52208;SDS011;38507;53.132;6.394;2022-10-31T16:00:25;12.85;;;5.82;;
52208;SDS011;38507;53.132;6.394;2022-10-31T16:03:02;11.65;;;5.97;;
52208;SDS011;38507;53.132;6.394;2022-10-31T16:05:44;11.32;;;5.18;;
52208;SDS011;38507;53.132;6.394;2022-10-31T16:11:35;11.43;;;5.85;;
52208;SDS011;38507;53.132;6.394;2022-10-31T16:14:06;15.70;;;6.70;;
52208;SDS011;38507;53.132;6.394;2022-10-31T16:16:43;15.48;;;6.65;;
52208;SDS011;38507;53.132;6.394;2022-10-31T16:19:21;18.38;;;6.65;;
52208;SDS011;38507;53.132;6.394;2022-10-31T16:21:54;13.48;;;6.53;;
52208;SDS011;38507;53.132;6.394;2022-10-31T16:24:31;14.10;;;6.18;;
52208;SDS011;38507;53.132;6.394;2022-10-31T16:27:03;15.38;;;7.20;;
52208;SDS011;38507;53.132;6.394;2022-10-31T16:29:36;12.95;;;6.10;;
52208;SDS011;38507;53.132;6.394;2022-10-31T16:32:23;12.77;;;5.80;;
52208;SDS011;38507;53.132;6.394;2022-10-31T16:37:37;13.55;;;5.80;;
52208;SDS011;38507;53.132;6.394;2022-10-31T16:40:06;14.65;;;6.40;;
52208;SDS011;38507;53.132;6.394;2022-10-31T16:42:33;12.57;;;5.95;;
52208;SDS011;38507;53.132;6.394;2022-10-31T16:44:58;13.82;;;5.78;;
52208;SDS011;38507;53.132;6.394;2022-10-31T16:47:24;13.73;;;6.20;;
52208;SDS011;38507;53.132;6.394;2022-10-31T16:49:50;12.35;;;5.97;;
52208;SDS011;38507;53.132;6.394;2022-10-31T16:52:16;15.88;;;6.20;;
52208;SDS011;38507;53.132;6.394;2022-10-31T16:54:42;13.85;;;5.95;;
52208;SDS011;38507;53.132;6.394;2022-10-31T16:57:12;11.23;;;6.38;;
52208;SDS011;38507;53.132;6.394;2022-10-31T16:59:42;13.05;;;6.03;;
52208;SDS011;38507;53.132;6.394;2022-10-31T17:02:17;13.95;;;5.82;;
52208;SDS011;38507;53.132;6.394;2022-10-31T17:04:42;12.10;;;6.15;;
52208;SDS011;38507;53.132;6.394;2022-10-31T17:07:08;14.50;;;6.90;;
52208;SDS011;38507;53.132;6.394;2022-10-31T17:09:34;17.23;;;6.82;;
52208;SDS011;38507;53.132;6.394;2022-10-31T17:12:00;13.68;;;6.93;;
52208;SDS011;38507;53.132;6.394;2022-10-31T17:14:26;14.48;;;7.57;;